Time,TemperatureF,DewpointF,PressureIn,WindDirection,WindDirectionDegrees,WindSpeedMPH,WindSpeedGustMPH,Humidity,HourlyPrecipIn,Conditions,Clouds,dailyrainin,SoftwareType,DateUTC
2013-12-21 00:04:00,30.5,29.0,29.81,WSW,253,1.0,6.0,94,0.00,,,0.00,Wunderground v.1.15,2013-12-21 06:04:00,
2013-12-21 00:14:00,30.4,28.9,29.82,WSW,253,0.0,6.0,94,0.00,,,0.00,Wunderground v.1.15,2013-12-21 06:14:00,
2013-12-21 00:24:00,30.3,28.8,29.81,North,354,0.0,6.0,94,0.00,,,0.00,Wunderground v.1.15,2013-12-21 06:24:00,
2013-12-21 00:34:00,30.3,29.0,29.83,NNW,347,0.0,6.0,95,0.00,,,0.00,Wunderground v.1.15,2013-12-21 06:34:00,
2013-12-21 00:44:00,30.5,29.2,29.82,NNW,342,0.0,6.0,95,0.00,,,0.00,Wunderground v.1.15,2013-12-21 06:44:00,
2013-12-21 00:49:00,30.5,29.2,29.82,NNW,343,0.0,6.0,95,0.00,,,0.00,Wunderground v.1.15,2013-12-21 06:49:00,
2013-12-21 00:54:00,30.5,29.0,29.82,West,262,0.0,6.0,94,0.00,,,0.00,Wunderground v.1.15,2013-12-21 06:54:00,
2013-12-21 01:04:00,30.6,29.1,29.82,SW,232,0.0,6.0,94,0.00,,,0.00,Wunderground v.1.15,2013-12-21 07:04:00,
2013-12-21 01:14:00,30.6,29.1,29.83,SSW,193,0.0,6.0,94,0.00,,,0.00,Wunderground v.1.15,2013-12-21 07:14:00,
2013-12-21 01:24:00,30.6,29.1,29.82,NW,304,0.0,6.0,94,0.00,,,0.00,Wunderground v.1.15,2013-12-21 07:24:00,
2013-12-21 01:34:00,30.6,29.1,29.80,NW,317,0.0,6.0,94,0.00,,,0.00,Wunderground v.1.15,2013-12-21 07:34:00,
2013-12-21 01:44:00,30.6,29.3,29.79,North,9,0.0,6.0,95,0.00,,,0.00,Wunderground v.1.15,2013-12-21 07:44:00,
2013-12-21 01:54:00,30.7,29.4,29.80,WNW,302,0.0,6.0,95,0.00,,,0.00,Wunderground v.1.15,2013-12-21 07:54:00,
2013-12-21 02:04:00,30.9,29.6,29.79,North,6,0.0,6.0,95,0.00,,,0.00,Wunderground v.1.15,2013-12-21 08:04:00,
2013-12-21 02:14:00,31.1,29.8,29.79,North,360,1.0,6.0,95,0.00,,,0.00,Wunderground v.1.15,2013-12-21 08:14:00,
2013-12-21 02:24:00,31.3,30.0,29.80,NW,319,0.0,6.0,95,0.00,,,0.00,Wunderground v.1.15,2013-12-21 08:24:00,
2013-12-21 02:34:00,31.3,30.0,29.80,WSW,245,0.0,6.0,95,0.00,,,0.00,Wunderground v.1.15,2013-12-21 08:34:00,
2013-12-21 02:44:00,31.5,30.2,29.80,West,276,0.0,6.0,95,0.00,,,0.00,Wunderground v.1.15,2013-12-21 08:44:00,
2013-12-21 02:54:00,31.6,30.3,29.81,SW,219,0.0,6.0,95,0.00,,,0.00,Wunderground v.1.15,2013-12-21 08:54:00,
2013-12-21 03:04:00,31.6,30.3,29.81,SSW,208,1.0,6.0,95,0.00,,,0.00,Wunderground v.1.15,2013-12-21 09:04:00,
2013-12-21 03:14:00,31.7,30.4,29.83,SW,217,0.0,6.0,95,0.00,,,0.00,Wunderground v.1.15,2013-12-21 09:14:00,
2013-12-21 03:24:00,31.7,30.4,29.82,WSW,252,0.0,6.0,95,0.00,,,0.00,Wunderground v.1.15,2013-12-21 09:24:00,
2013-12-21 03:34:00,31.7,30.4,29.80,SSW,208,0.0,6.0,95,0.00,,,0.00,Wunderground v.1.15,2013-12-21 09:34:00,
2013-12-21 03:44:00,31.8,30.5,29.79,North,349,0.0,6.0,95,0.00,,,0.00,Wunderground v.1.15,2013-12-21 09:44:00,
2013-12-21 03:54:00,31.7,30.4,29.78,WNW,283,0.0,6.0,95,0.00,,,0.00,Wunderground v.1.15,2013-12-21 09:54:00,
2013-12-21 04:04:00,31.5,30.2,29.76,NNW,347,0.0,6.0,95,0.00,,,0.00,Wunderground v.1.15,2013-12-21 10:04:00,
2013-12-21 04:14:00,31.3,30.0,29.74,NW,316,1.0,6.0,95,0.00,,,0.00,Wunderground v.1.15,2013-12-21 10:14:00,
2013-12-21 04:24:00,31.2,29.9,29.74,North,352,1.0,6.0,95,0.00,,,0.00,Wunderground v.1.15,2013-12-21 10:24:00,
2013-12-21 04:34:00,31.1,29.8,29.75,North,9,0.0,6.0,95,0.00,,,0.00,Wunderground v.1.15,2013-12-21 10:34:00,
2013-12-21 04:44:00,31.0,29.7,29.76,NW,326,0.0,6.0,95,0.00,,,0.00,Wunderground v.1.15,2013-12-21 10:44:00,
2013-12-21 04:54:00,31.0,29.7,29.76,SW,223,0.0,6.0,95,0.00,,,0.00,Wunderground v.1.15,2013-12-21 10:54:00,
2013-12-21 05:04:00,31.1,29.8,29.77,NNW,333,0.0,6.0,95,0.00,,,0.00,Wunderground v.1.15,2013-12-21 11:04:00,
2013-12-21 05:14:00,31.0,29.7,29.77,West,270,0.0,6.0,95,0.00,,,0.00,Wunderground v.1.15,2013-12-21 11:14:00,
2013-12-21 05:24:00,31.0,29.7,29.78,NNE,33,0.0,6.0,95,0.00,,,0.00,Wunderground v.1.15,2013-12-21 11:24:00,
2013-12-21 05:34:00,30.9,29.6,29.77,WNW,294,0.0,6.0,95,0.00,,,0.00,Wunderground v.1.15,2013-12-21 11:34:00,
2013-12-21 05:44:00,31.0,29.7,29.77,WSW,247,0.0,6.0,95,0.00,,,0.00,Wunderground v.1.15,2013-12-21 11:44:00,
2013-12-21 05:54:00,31.1,29.8,29.79,WNW,287,0.0,6.0,95,0.00,,,0.00,Wunderground v.1.15,2013-12-21 11:54:00,
2013-12-21 06:04:00,31.1,29.8,29.82,SSW,213,0.0,6.0,95,0.00,,,0.00,Wunderground v.1.15,2013-12-21 12:04:00,
2013-12-21 06:14:00,31.2,29.9,29.82,SW,222,0.0,6.0,95,0.00,,,0.00,Wunderground v.1.15,2013-12-21 12:14:00,
2013-12-21 06:24:00,31.3,30.3,29.84,SSW,195,0.0,6.0,96,0.00,,,0.00,Wunderground v.1.15,2013-12-21 12:24:00,
2013-12-21 06:34:00,31.4,30.4,29.82,SSW,195,0.0,6.0,96,0.00,,,0.00,Wunderground v.1.15,2013-12-21 12:34:00,
2013-12-21 06:44:00,31.2,29.9,29.81,SSW,195,0.0,6.0,95,0.00,,,0.00,Wunderground v.1.15,2013-12-21 12:44:00,
2013-12-21 06:54:00,31.1,29.8,29.82,SSW,195,0.0,6.0,95,0.00,,,0.00,Wunderground v.1.15,2013-12-21 12:54:00,
2013-12-21 06:59:00,31.1,29.8,29.81,SSW,195,0.0,6.0,95,0.00,,,0.00,Wunderground v.1.15,2013-12-21 12:59:00,
2013-12-21 07:09:00,31.0,29.7,29.81,SSW,195,0.0,6.0,95,0.00,,,0.00,Wunderground v.1.15,2013-12-21 13:09:00,
2013-12-21 07:19:00,31.0,29.7,29.80,SSW,195,0.0,6.0,95,0.00,,,0.00,Wunderground v.1.15,2013-12-21 13:19:00,
2013-12-21 07:29:00,31.2,29.9,29.79,SSW,195,0.0,6.0,95,0.00,,,0.00,Wunderground v.1.15,2013-12-21 13:29:00,
2013-12-21 07:39:00,31.1,29.8,29.79,SSW,195,0.0,6.0,95,0.00,,,0.00,Wunderground v.1.15,2013-12-21 13:39:00,
2013-12-21 07:49:00,31.2,29.9,29.80,SSW,195,0.0,6.0,95,0.00,,,0.00,Wunderground v.1.15,2013-12-21 13:49:00,
2013-12-21 07:59:00,31.2,29.9,29.80,SSW,195,0.0,6.0,95,0.00,,,0.00,Wunderground v.1.15,2013-12-21 13:59:00,
2013-12-21 08:09:00,31.2,29.9,29.79,SSW,195,0.0,6.0,95,0.00,,,0.00,Wunderground v.1.15,2013-12-21 14:09:00,
2013-12-21 08:14:00,31.2,29.9,29.79,SSW,195,0.0,6.0,95,0.00,,,0.00,Wunderground v.1.15,2013-12-21 14:14:00,
2013-12-21 08:19:00,31.2,29.9,29.78,SSW,195,0.0,6.0,95,0.00,,,0.00,Wunderground v.1.15,2013-12-21 14:19:00,
2013-12-21 08:29:00,31.2,29.9,29.77,SSW,195,0.0,6.0,95,0.00,,,0.00,Wunderground v.1.15,2013-12-21 14:29:00,
2013-12-21 08:39:00,31.2,29.9,29.76,SSW,195,0.0,6.0,95,0.00,,,0.00,Wunderground v.1.15,2013-12-21 14:39:00,
2013-12-21 08:49:00,31.0,29.7,29.76,SSW,195,0.0,6.0,95,0.00,,,0.00,Wunderground v.1.15,2013-12-21 14:49:00,
2013-12-21 08:59:00,30.9,29.6,29.76,SSW,195,0.0,6.0,95,0.00,,,0.00,Wunderground v.1.15,2013-12-21 14:59:00,
2013-12-21 09:04:00,30.9,29.6,29.75,SSW,195,0.0,6.0,95,0.00,,,0.00,Wunderground v.1.15,2013-12-21 15:04:00,
2013-12-21 09:14:00,30.9,29.6,29.77,SSW,195,0.0,6.0,95,0.00,,,0.00,Wunderground v.1.15,2013-12-21 15:14:00,
2013-12-21 09:24:00,30.9,29.6,29.79,SSW,195,0.0,6.0,95,0.00,,,0.00,Wunderground v.1.15,2013-12-21 15:24:00,
2013-12-21 09:34:00,31.0,29.7,29.80,SSW,195,0.0,6.0,95,0.00,,,0.00,Wunderground v.1.15,2013-12-21 15:34:00,
2013-12-21 09:44:00,31.1,29.8,29.79,SSW,195,0.0,6.0,95,0.00,,,0.00,Wunderground v.1.15,2013-12-21 15:44:00,
2013-12-21 09:54:00,31.3,30.3,29.80,SSW,195,0.0,6.0,96,0.00,,,0.00,Wunderground v.1.15,2013-12-21 15:54:00,
2013-12-21 10:04:00,31.5,30.5,29.81,SSW,195,0.0,6.0,96,0.00,,,0.00,Wunderground v.1.15,2013-12-21 16:04:00,
2013-12-21 10:14:00,31.6,30.6,29.81,SSW,195,0.0,6.0,96,0.00,,,0.00,Wunderground v.1.15,2013-12-21 16:14:00,
2013-12-21 10:19:00,31.6,30.3,29.80,SSW,195,0.0,6.0,95,0.00,,,0.00,Wunderground v.1.15,2013-12-21 16:19:00,
2013-12-21 10:29:00,31.7,30.4,29.79,SSW,195,0.0,6.0,95,0.00,,,0.00,Wunderground v.1.15,2013-12-21 16:29:00,
2013-12-21 10:39:00,31.8,30.8,29.78,SSW,195,0.0,6.0,96,0.00,,,0.00,Wunderground v.1.15,2013-12-21 16:39:00,
2013-12-21 10:49:00,31.8,30.8,29.77,SSW,195,0.0,6.0,96,0.00,,,0.00,Wunderground v.1.15,2013-12-21 16:49:00,
2013-12-21 10:59:00,31.8,30.5,29.77,SSW,195,0.0,6.0,95,0.00,,,0.00,Wunderground v.1.15,2013-12-21 16:59:00,
2013-12-21 11:04:00,31.8,30.5,29.77,SSW,195,0.0,6.0,95,0.00,,,0.00,Wunderground v.1.15,2013-12-21 17:04:00,
2013-12-21 11:14:00,31.9,30.6,29.76,SSW,195,0.0,6.0,95,0.00,,,0.00,Wunderground v.1.15,2013-12-21 17:14:00,
2013-12-21 11:24:00,31.9,30.6,29.74,SSW,195,0.0,6.0,95,0.00,,,0.00,Wunderground v.1.15,2013-12-21 17:24:00,
2013-12-21 11:34:00,31.8,30.5,29.73,SSW,195,0.0,6.0,95,0.00,,,0.00,Wunderground v.1.15,2013-12-21 17:34:00,
2013-12-21 11:44:00,31.8,30.5,29.74,SSW,195,0.0,6.0,95,0.00,,,0.00,Wunderground v.1.15,2013-12-21 17:44:00,
2013-12-21 11:54:00,31.8,30.5,29.73,SSW,196,0.0,6.0,95,0.00,,,0.00,Wunderground v.1.15,2013-12-21 17:54:00,
2013-12-21 12:04:00,31.8,30.5,29.73,SSW,195,0.0,6.0,95,0.00,,,0.00,Wunderground v.1.15,2013-12-21 18:04:00,
2013-12-21 12:14:00,31.8,30.5,29.73,SSW,195,0.0,6.0,95,0.00,,,0.00,Wunderground v.1.15,2013-12-21 18:14:00,
2013-12-21 12:19:00,31.9,30.6,29.73,SSW,195,0.0,6.0,95,0.00,,,0.00,Wunderground v.1.15,2013-12-21 18:19:00,
2013-12-21 12:29:00,32.0,30.7,29.72,SSW,195,0.0,6.0,95,0.00,,,0.00,Wunderground v.1.15,2013-12-21 18:29:00,
2013-12-21 12:39:00,32.1,31.1,29.71,SSW,195,0.0,6.0,96,0.00,,,0.00,Wunderground v.1.15,2013-12-21 18:39:00,
2013-12-21 12:49:00,32.1,30.8,29.71,SSW,195,0.0,6.0,95,0.00,,,0.00,Wunderground v.1.15,2013-12-21 18:49:00,
2013-12-21 12:59:00,32.1,30.8,29.71,SSW,195,0.0,6.0,95,0.00,,,0.00,Wunderground v.1.15,2013-12-21 18:59:00,
2013-12-21 13:04:00,32.2,30.9,29.71,SSW,195,0.0,6.0,95,0.00,,,0.00,Wunderground v.1.15,2013-12-21 19:04:00,
2013-12-21 13:14:00,32.2,30.9,29.72,SSW,195,0.0,6.0,95,0.00,,,0.00,Wunderground v.1.15,2013-12-21 19:14:00,
2013-12-21 13:24:00,32.3,31.0,29.72,SSW,195,0.0,6.0,95,0.00,,,0.00,Wunderground v.1.15,2013-12-21 19:24:00,
2013-12-21 13:34:00,32.3,31.0,29.71,SSW,195,0.0,6.0,95,0.00,,,0.00,Wunderground v.1.15,2013-12-21 19:34:00,
2013-12-21 13:44:00,32.4,31.4,29.70,SSW,195,0.0,6.0,96,0.00,,,0.00,Wunderground v.1.15,2013-12-21 19:44:00,
2013-12-21 13:54:00,32.3,31.0,29.70,SSW,195,0.0,6.0,95,0.00,,,0.00,Wunderground v.1.15,2013-12-21 19:54:00,
2013-12-21 14:04:00,32.4,31.1,29.68,SSW,195,0.0,6.0,95,0.00,,,0.00,Wunderground v.1.15,2013-12-21 20:04:00,
2013-12-21 14:14:00,32.4,31.4,29.67,SSW,195,0.0,6.0,96,0.00,,,0.00,Wunderground v.1.15,2013-12-21 20:14:00,
2013-12-21 14:19:00,32.3,31.3,29.67,SSW,196,0.0,6.0,96,0.00,,,0.00,Wunderground v.1.15,2013-12-21 20:19:00,
2013-12-21 14:29:00,32.3,31.3,29.66,SSW,195,0.0,6.0,96,0.00,,,0.00,Wunderground v.1.15,2013-12-21 20:29:00,
2013-12-21 14:39:00,32.3,31.3,29.66,SSW,195,0.0,6.0,96,0.00,,,0.00,Wunderground v.1.15,2013-12-21 20:39:00,
2013-12-21 14:49:00,32.3,31.3,29.66,SSW,195,0.0,6.0,96,0.00,,,0.00,Wunderground v.1.15,2013-12-21 20:49:00,
2013-12-21 14:59:00,32.3,31.0,29.67,SSW,195,0.0,6.0,95,0.00,,,0.00,Wunderground v.1.15,2013-12-21 20:59:00,
2013-12-21 15:04:00,32.3,31.0,29.66,SSW,195,0.0,6.0,95,0.00,,,0.00,Wunderground v.1.15,2013-12-21 21:04:00,
2013-12-21 15:14:00,32.3,31.0,29.65,SSW,195,0.0,6.0,95,0.00,,,0.01,Wunderground v.1.15,2013-12-21 21:14:00,
2013-12-21 15:19:00,32.3,31.0,29.65,SSW,195,0.0,6.0,95,0.00,,,0.01,Wunderground v.1.15,2013-12-21 21:19:00,
2013-12-21 15:29:00,32.3,31.0,29.65,SSW,195,0.0,6.0,95,0.00,,,0.01,Wunderground v.1.15,2013-12-21 21:29:00,
2013-12-21 15:39:00,32.4,31.4,29.67,SSW,195,0.0,6.0,96,0.00,,,0.01,Wunderground v.1.15,2013-12-21 21:39:00,
2013-12-21 15:44:00,32.4,31.4,29.67,SSW,195,0.0,6.0,96,0.00,,,0.01,Wunderground v.1.15,2013-12-21 21:44:00,
2013-12-21 15:54:00,32.4,31.4,29.68,SSW,195,0.0,6.0,96,0.00,,,0.01,Wunderground v.1.15,2013-12-21 21:54:00,
2013-12-21 15:59:00,32.4,31.4,29.69,SSW,195,0.0,6.0,96,0.00,,,0.01,Wunderground v.1.15,2013-12-21 21:59:00,
2013-12-21 16:09:00,32.4,31.4,29.69,SSW,195,0.0,6.0,96,0.00,,,0.01,Wunderground v.1.15,2013-12-21 22:09:00,
2013-12-21 16:19:00,32.4,31.4,29.69,SSW,195,0.0,6.0,96,0.00,,,0.01,Wunderground v.1.15,2013-12-21 22:19:00,
2013-12-21 16:29:00,32.5,31.5,29.71,SSW,195,0.0,6.0,96,0.00,,,0.01,Wunderground v.1.15,2013-12-21 22:29:00,
2013-12-21 16:39:00,32.5,31.5,29.69,SSW,195,0.0,6.0,96,0.00,,,0.01,Wunderground v.1.15,2013-12-21 22:39:00,
2013-12-21 16:49:00,32.4,31.4,29.68,SSW,195,0.0,6.0,96,0.00,,,0.01,Wunderground v.1.15,2013-12-21 22:49:00,
2013-12-21 16:59:00,32.4,31.4,29.68,SSW,195,0.0,6.0,96,0.00,,,0.01,Wunderground v.1.15,2013-12-21 22:59:00,
2013-12-21 17:04:00,32.4,31.4,29.65,SSW,195,0.0,6.0,96,0.00,,,0.01,Wunderground v.1.15,2013-12-21 23:04:00,
2013-12-21 17:14:00,32.4,31.4,29.67,SSW,195,0.0,6.0,96,0.00,,,0.01,Wunderground v.1.15,2013-12-21 23:14:00,
2013-12-21 17:19:00,32.3,31.3,29.66,SSW,195,0.0,6.0,96,0.00,,,0.01,Wunderground v.1.15,2013-12-21 23:19:00,
2013-12-21 17:29:00,32.3,31.3,29.67,SSW,195,0.0,6.0,96,0.00,,,0.01,Wunderground v.1.15,2013-12-21 23:29:00,
2013-12-21 17:39:00,32.2,31.2,29.66,SSW,195,0.0,6.0,96,0.00,,,0.01,Wunderground v.1.15,2013-12-21 23:39:00,
2013-12-21 17:44:00,32.2,31.2,29.67,SSW,195,0.0,6.0,96,0.00,,,0.01,Wunderground v.1.15,2013-12-21 23:44:00,
2013-12-21 17:54:00,32.1,31.1,29.66,SSW,196,0.0,6.0,96,0.00,,,0.01,Wunderground v.1.15,2013-12-21 23:54:00,
2013-12-21 17:59:00,32.1,31.1,29.65,SSW,196,0.0,6.0,96,0.00,,,0.01,Wunderground v.1.15,2013-12-21 23:59:00,
2013-12-21 18:09:00,32.1,31.1,29.67,SSW,195,0.0,6.0,96,0.00,,,0.01,Wunderground v.1.15,2013-12-22 00:09:00,
2013-12-21 18:19:00,32.1,31.1,29.65,SSW,195,0.0,6.0,96,0.00,,,0.01,Wunderground v.1.15,2013-12-22 00:19:00,
2013-12-21 18:29:00,32.0,31.0,29.65,SSW,195,0.0,6.0,96,0.00,,,0.01,Wunderground v.1.15,2013-12-22 00:29:00,
2013-12-21 18:39:00,32.0,31.0,29.64,SSW,195,0.0,6.0,96,0.00,,,0.01,Wunderground v.1.15,2013-12-22 00:39:00,
2013-12-21 18:49:00,31.9,30.9,29.61,SSW,195,0.0,6.0,96,0.00,,,0.01,Wunderground v.1.15,2013-12-22 00:49:00,
2013-12-21 18:59:00,31.8,30.8,29.58,SSW,195,0.0,6.0,96,0.00,,,0.01,Wunderground v.1.15,2013-12-22 00:59:00,
2013-12-21 19:04:00,31.7,30.7,29.57,SSW,195,0.0,6.0,96,0.00,,,0.01,Wunderground v.1.15,2013-12-22 01:04:00,
2013-12-21 19:14:00,31.7,30.7,29.56,SSW,195,0.0,6.0,96,0.00,,,0.01,Wunderground v.1.15,2013-12-22 01:14:00,
2013-12-21 19:24:00,31.7,30.7,29.58,SSW,195,0.0,6.0,96,0.00,,,0.01,Wunderground v.1.15,2013-12-22 01:24:00,
2013-12-21 19:34:00,31.7,30.7,29.58,SSW,195,0.0,6.0,96,0.00,,,0.01,Wunderground v.1.15,2013-12-22 01:34:00,
2013-12-21 19:44:00,31.7,30.7,29.60,SSW,195,0.0,6.0,96,0.00,,,0.01,Wunderground v.1.15,2013-12-22 01:44:00,
2013-12-21 19:49:00,31.7,30.7,29.61,SSW,195,0.0,6.0,96,0.00,,,0.01,Wunderground v.1.15,2013-12-22 01:49:00,
2013-12-21 19:59:00,31.7,30.7,29.63,SSW,195,0.0,6.0,96,0.00,,,0.01,Wunderground v.1.15,2013-12-22 01:59:00,
2013-12-21 20:09:00,31.8,30.8,29.63,SSW,195,0.0,6.0,96,0.00,,,0.01,Wunderground v.1.15,2013-12-22 02:09:00,
2013-12-21 20:19:00,31.9,31.1,29.63,SSW,195,0.0,6.0,97,0.00,,,0.01,Wunderground v.1.15,2013-12-22 02:19:00,
2013-12-21 20:29:00,31.8,31.0,29.63,SSW,195,0.0,6.0,97,0.00,,,0.01,Wunderground v.1.15,2013-12-22 02:29:00,
2013-12-21 20:39:00,31.9,31.1,29.64,SSW,195,0.0,6.0,97,0.00,,,0.01,Wunderground v.1.15,2013-12-22 02:39:00,
2013-12-21 20:49:00,31.9,31.1,29.64,SSW,195,0.0,6.0,97,0.00,,,0.01,Wunderground v.1.15,2013-12-22 02:49:00,
2013-12-21 20:59:00,32.0,31.2,29.66,SSW,195,0.0,6.0,97,0.00,,,0.01,Wunderground v.1.15,2013-12-22 02:59:00,
2013-12-21 21:04:00,32.0,31.2,29.66,SSW,195,0.0,6.0,97,0.00,,,0.01,Wunderground v.1.15,2013-12-22 03:04:00,
2013-12-21 21:14:00,32.1,31.3,29.66,SSW,195,0.0,6.0,97,0.00,,,0.01,Wunderground v.1.15,2013-12-22 03:14:00,
2013-12-21 21:24:00,32.1,31.3,29.67,SSW,195,0.0,6.0,97,0.00,,,0.01,Wunderground v.1.15,2013-12-22 03:24:00,
2013-12-21 21:34:00,32.2,31.4,29.68,SSW,195,0.0,6.0,97,0.00,,,0.01,Wunderground v.1.15,2013-12-22 03:34:00,
2013-12-21 21:44:00,32.3,31.5,29.69,SSW,195,0.0,6.0,97,0.00,,,0.01,Wunderground v.1.15,2013-12-22 03:44:00,
2013-12-21 21:49:00,32.4,31.6,29.69,SSW,195,0.0,6.0,97,0.00,,,0.01,Wunderground v.1.15,2013-12-22 03:49:00,
2013-12-21 21:59:00,32.3,31.5,29.68,SSW,195,0.0,6.0,97,0.00,,,0.01,Wunderground v.1.15,2013-12-22 03:59:00,
2013-12-21 22:09:00,32.3,31.5,29.68,SSW,195,0.0,6.0,97,0.00,,,0.01,Wunderground v.1.15,2013-12-22 04:09:00,
2013-12-21 22:19:00,32.2,31.4,29.68,SSW,195,0.0,6.0,97,0.00,,,0.01,Wunderground v.1.15,2013-12-22 04:19:00,
2013-12-21 22:29:00,32.2,31.4,29.70,SSW,195,0.0,6.0,97,0.00,,,0.01,Wunderground v.1.15,2013-12-22 04:29:00,
2013-12-21 22:39:00,32.3,31.5,29.72,SSW,195,0.0,6.0,97,0.00,,,0.01,Wunderground v.1.15,2013-12-22 04:39:00,
2013-12-21 22:49:00,32.3,31.5,29.71,SSW,195,0.0,6.0,97,0.00,,,0.01,Wunderground v.1.15,2013-12-22 04:49:00,
2013-12-21 22:59:00,32.3,31.5,29.71,SSW,195,0.0,6.0,97,0.00,,,0.01,Wunderground v.1.15,2013-12-22 04:59:00,
2013-12-21 23:04:00,32.4,31.6,29.71,SSW,195,0.0,6.0,97,0.00,,,0.01,Wunderground v.1.15,2013-12-22 05:04:00,
2013-12-21 23:09:00,32.4,31.6,29.71,SSW,195,0.0,6.0,97,0.00,,,0.01,Wunderground v.1.15,2013-12-22 05:09:00,
2013-12-21 23:19:00,32.4,31.6,29.70,SSW,195,0.0,6.0,97,0.00,,,0.01,Wunderground v.1.15,2013-12-22 05:19:00,
2013-12-21 23:24:00,32.4,31.6,29.69,SSW,195,0.0,6.0,97,0.00,,,0.01,Wunderground v.1.15,2013-12-22 05:24:00,
2013-12-21 23:29:00,32.4,31.6,29.69,SSW,195,0.0,6.0,97,0.00,,,0.01,Wunderground v.1.15,2013-12-22 05:29:00,
2013-12-21 23:34:00,32.3,31.5,29.68,SSW,195,0.0,6.0,97,0.00,,,0.01,Wunderground v.1.15,2013-12-22 05:34:00,
2013-12-21 23:44:00,32.3,31.5,29.67,SSW,195,0.0,6.0,97,0.00,,,0.01,Wunderground v.1.15,2013-12-22 05:44:00,
2013-12-21 23:49:00,32.3,31.5,29.68,SSW,195,0.0,6.0,97,0.00,,,0.01,Wunderground v.1.15,2013-12-22 05:49:00,
2013-12-21 23:59:00,32.3,31.5,29.67,SSW,195,0.0,6.0,97,0.00,,,0.01,Wunderground v.1.15,2013-12-22 05:59:00,